Time;durP1;ratioP1;P1;durP2;ratioP2;P2;SDS_P1;SDS_P2;PMS_P1;PMS_P2;Temp;Humidity;BMP_temperature;BMP_pressure;BME280_temperature;BME280_humidity;BME280_pressure;Samples;Min_cycle;Max_cycle;Signal;HPM_P1;HPM_P2
2021/03/24 00:02:11;;;;;;;101.70;36.60;;;;;;;1.26;100.00;102394.09;5154031;28;20049;-68
2021/03/24 00:04:42;;;;;;;102.93;37.88;;;;;;;1.19;100.00;102404.06;5150799;28;20390;-68
2021/03/24 00:07:12;;;;;;;108.28;40.42;;;;;;;1.13;100.00;102393.78;5156957;28;20057;-68
2021/03/24 00:09:43;;;;;;;94.43;37.15;;;;;;;1.09;100.00;102399.25;5150193;28;20038;-68
2021/03/24 00:12:13;;;;;;;85.90;33.15;;;;;;;1.04;100.00;102399.47;5151809;28;20057;-68
2021/03/24 00:14:44;;;;;;;98.93;35.53;;;;;;;1.02;100.00;102391.59;5152158;28;20390;-69
2021/03/24 00:17:14;;;;;;;95.25;36.70;;;;;;;1.02;100.00;102388.09;5158812;28;20014;-68
2021/03/24 00:19:45;;;;;;;100.03;37.33;;;;;;;1.03;100.00;102392.47;5152496;28;20019;-68
2021/03/24 00:22:15;;;;;;;111.88;41.25;;;;;;;1.02;100.00;102390.75;5155009;28;20121;-68
2021/03/24 00:24:46;;;;;;;103.97;39.35;;;;;;;0.98;100.00;102390.00;5200161;28;20037;-68
2021/03/24 00:27:17;;;;;;;119.80;42.00;;;;;;;0.95;100.00;102390.13;5153839;28;20029;-68
2021/03/24 00:29:48;;;;;;;114.65;40.72;;;;;;;0.94;100.00;102388.41;5153473;28;20041;-68
2021/03/24 00:32:18;;;;;;;112.47;38.45;;;;;;;0.91;100.00;102393.00;5153825;28;20471;-68
2021/03/24 00:34:48;;;;;;;99.88;36.58;;;;;;;0.85;100.00;102380.03;5151530;28;20602;-68
2021/03/24 00:37:19;;;;;;;96.55;37.47;;;;;;;0.82;100.00;102388.97;5151401;28;20031;-68
2021/03/24 00:39:49;;;;;;;102.22;38.05;;;;;;;0.80;100.00;102384.66;5154204;28;20113;-67
2021/03/24 00:42:20;;;;;;;102.55;37.97;;;;;;;0.76;100.00;102382.16;5156400;28;20028;-68
2021/03/24 00:44:50;;;;;;;114.68;40.83;;;;;;;0.76;100.00;102379.53;5149683;28;20616;-69
2021/03/24 00:47:21;;;;;;;98.93;38.15;;;;;;;0.76;100.00;102383.94;5156569;28;20033;-68
2021/03/24 00:49:51;;;;;;;108.20;38.25;;;;;;;0.74;100.00;102376.06;5156138;28;20062;-68
2021/03/24 00:52:22;;;;;;;105.85;38.80;;;;;;;0.76;100.00;102374.25;5156659;28;20030;-68
2021/03/24 00:54:52;;;;;;;97.20;37.50;;;;;;;0.75;100.00;102361.06;5156768;28;20023;-68
2021/03/24 00:57:23;;;;;;;115.07;40.90;;;;;;;0.72;100.00;102369.16;5156938;28;20071;-68
2021/03/24 00:59:53;;;;;;;107.07;39.58;;;;;;;0.68;100.00;102362.28;5154479;28;20346;-69
2021/03/24 01:02:24;;;;;;;96.32;35.13;;;;;;;0.61;100.00;102364.31;5146084;28;20050;-68
2021/03/24 01:04:54;;;;;;;103.28;35.35;;;;;;;0.56;100.00;102363.66;5143148;28;20434;-68
2021/03/24 01:07:25;;;;;;;103.47;36.60;;;;;;;0.51;100.00;102358.56;5148753;28;20023;-68
2021/03/24 01:09:55;;;;;;;105.38;36.53;;;;;;;0.47;100.00;102353.47;5146661;28;20031;-69
2021/03/24 01:12:26;;;;;;;123.57;41.75;;;;;;;0.47;100.00;102354.34;5148957;28;20207;-69
2021/03/24 01:14:56;;;;;;;122.97;42.65;;;;;;;0.46;100.00;102351.78;5156397;28;20053;-68
2021/03/24 01:17:27;;;;;;;126.60;42.10;;;;;;;0.47;100.00;102346.41;5150702;28;20026;-68
2021/03/24 01:19:57;;;;;;;135.45;44.13;;;;;;;0.49;100.00;102339.28;5140655;28;20079;-70
2021/03/24 01:22:27;;;;;;;137.73;46.00;;;;;;;0.50;100.00;102342.78;5142329;28;20109;-69
2021/03/24 01:24:59;;;;;;;123.72;39.25;;;;;;;0.51;100.00;102347.16;5156916;28;20513;-68
2021/03/24 01:27:29;;;;;;;123.43;43.20;;;;;;;0.50;100.00;102345.41;5160430;28;20030;-68
2021/03/24 01:30:00;;;;;;;115.88;38.72;;;;;;;0.56;100.00;102337.25;5157624;28;20386;-69
2021/03/24 01:32:30;;;;;;;116.88;40.55;;;;;;;0.60;100.00;102341.47;5156405;28;20715;-68
2021/03/24 01:35:01;;;;;;;116.00;41.28;;;;;;;0.64;100.00;102348.34;5159517;28;20260;-68
2021/03/24 01:37:31;;;;;;;105.93;39.75;;;;;;;0.66;100.00;102348.28;5159622;28;20109;-68
2021/03/24 01:40:05;;;;;;;106.53;36.30;;;;;;;0.67;100.00;102350.00;5158234;28;20026;-69
2021/03/24 01:42:36;;;;;;;108.38;39.05;;;;;;;0.65;100.00;102350.06;5159971;28;20030;-68
2021/03/24 01:45:15;;;;;;;121.88;39.35;;;;;;;0.63;100.00;102351.91;5148580;28;20038;-68
2021/03/24 01:47:47;;;;;;;124.80;44.47;;;;;;;0.60;100.00;102346.75;5158917;28;20173;-69
2021/03/24 01:50:26;;;;;;;125.47;41.10;;;;;;;0.55;100.00;102350.50;5158252;28;20030;-68
2021/03/24 01:52:57;;;;;;;113.00;39.80;;;;;;;0.45;100.00;102347.38;5160662;28;20038;-68
2021/03/24 01:55:28;;;;;;;97.63;37.50;;;;;;;0.34;100.00;102347.00;5158448;28;20390;-68
2021/03/24 01:58:00;;;;;;;108.70;39.55;;;;;;;0.27;100.00;102353.47;5158393;28;20363;-68
2021/03/24 02:00:41;;;;;;;98.68;36.35;;;;;;;0.21;100.00;102351.94;5156667;28;20018;-69
2021/03/24 02:03:12;;;;;;;105.07;35.30;;;;;;;0.19;100.00;102353.75;5158354;28;20485;-68
2021/03/24 02:05:44;;;;;;;105.75;38.08;;;;;;;0.23;100.00;102347.44;5159327;28;20020;-69
2021/03/24 02:08:22;;;;;;;122.13;42.10;;;;;;;0.25;100.00;102349.09;5158257;28;20030;-69
2021/03/24 02:11:02;;;;;;;109.93;39.65;;;;;;;0.23;100.00;102350.06;5157989;28;20057;-68
2021/03/24 02:13:42;;;;;;;129.27;40.75;;;;;;;0.19;100.00;102340.56;5158281;28;20033;-68
2021/03/24 02:16:28;;;;;;;132.88;41.95;;;;;;;0.14;100.00;102337.25;5157743;28;20093;-68
2021/03/24 02:19:03;;;;;;;124.20;42.45;;;;;;;0.10;100.00;102333.00;5159989;28;20030;-68
2021/03/24 02:21:36;;;;;;;129.15;40.67;;;;;;;0.05;100.00;102332.34;5157564;28;20022;-68
2021/03/24 02:24:40;;;;;;;103.93;37.00;;;;;;;0.03;100.00;102332.41;5159341;28;20026;-68
2021/03/24 02:27:18;;;;;;;124.88;38.10;;;;;;;0.04;100.00;102328.00;5145197;28;20456;-68
2021/03/24 02:29:52;;;;;;;112.13;36.95;;;;;;;0.05;100.00;102333.22;5155979;28;20147;-68
2021/03/24 02:32:26;;;;;;;106.00;34.58;;;;;;;0.09;100.00;102321.59;5150135;28;20023;-70
2021/03/24 02:35:03;;;;;;;114.50;39.80;;;;;;;0.14;100.00;102324.06;5151309;28;20038;-68
2021/03/24 02:37:37;;;;;;;113.55;40.67;;;;;;;0.11;100.00;102322.41;5152159;28;20022;-68
2021/03/24 02:40:12;;;;;;;117.88;38.13;;;;;;;0.08;100.00;102324.31;5152982;28;20033;-68
2021/03/24 02:42:47;;;;;;;107.70;36.13;;;;;;;-0.01;100.00;102323.75;5150283;28;20023;-68
2021/03/24 02:45:22;;;;;;;112.93;40.67;;;;;;;-0.06;100.00;102328.34;5157974;28;20083;-68
2021/03/24 02:48:04;;;;;;;103.05;36.30;;;;;;;-0.09;100.00;102325.00;5142598;28;20035;-68
2021/03/24 02:50:38;;;;;;;117.30;39.97;;;;;;;-0.11;100.00;102326.81;5148755;28;20513;-68
2021/03/24 02:53:09;;;;;;;110.22;37.92;;;;;;;-0.16;100.00;102326.16;5149141;28;20029;-68
2021/03/24 02:55:43;;;;;;;121.82;40.85;;;;;;;-0.20;100.00;102314.88;5150263;28;20042;-70
2021/03/24 02:58:22;;;;;;;123.65;39.10;;;;;;;-0.21;100.00;102310.50;5157981;28;20383;-68
2021/03/24 03:00:53;;;;;;;123.88;39.97;;;;;;;-0.24;100.00;102315.94;5158267;28;20079;-68
2021/03/24 03:03:28;;;;;;;125.57;37.28;;;;;;;-0.27;100.00;102314.25;5158458;28;20414;-68
2021/03/24 03:06:03;;;;;;;137.27;42.28;;;;;;;-0.26;100.00;102318.59;5157538;28;20026;-68
2021/03/24 03:08:41;;;;;;;133.23;42.63;;;;;;;-0.26;100.00;102309.84;5159513;28;20547;-69
2021/03/24 03:11:21;;;;;;;141.75;43.88;;;;;;;-0.26;100.00;102315.97;5153370;28;20870;-68
2021/03/24 03:13:52;;;;;;;124.25;40.22;;;;;;;-0.27;100.00;102319.53;5158735;28;20042;-69
2021/03/24 03:16:31;;;;;;;127.18;39.63;;;;;;;-0.28;100.00;102316.97;5157785;28;20026;-68
2021/03/24 03:19:09;;;;;;;141.88;40.58;;;;;;;-0.29;100.00;102307.34;5158630;28;20034;-69
2021/03/24 03:21:45;;;;;;;126.20;39.65;;;;;;;-0.28;100.00;102314.31;5157132;28;20026;-70
2021/03/24 03:24:16;;;;;;;108.85;35.17;;;;;;;-0.29;100.00;102316.09;5165328;28;20121;-69
2021/03/24 03:26:50;;;;;;;82.55;29.58;;;;;;;-0.27;100.00;102308.13;5199975;28;20026;-68
2021/03/24 03:29:21;;;;;;;99.97;33.58;;;;;;;-0.27;100.00;102314.25;5153491;28;20031;-68
2021/03/24 03:31:53;;;;;;;117.25;36.72;;;;;;;-0.29;100.00;102309.97;5155028;28;20046;-69
2021/03/24 03:34:26;;;;;;;121.43;36.70;;;;;;;-0.33;100.00;102308.38;5155491;28;20459;-69
2021/03/24 03:36:57;;;;;;;109.38;34.25;;;;;;;-0.38;100.00;102313.81;5156839;28;20018;-69
2021/03/24 03:39:29;;;;;;;110.82;35.15;;;;;;;-0.41;100.00;102308.66;5154518;28;20065;-69
2021/03/24 03:42:02;;;;;;;120.20;38.63;;;;;;;-0.44;100.00;102302.66;5156434;28;20117;-68
2021/03/24 03:44:35;;;;;;;113.55;37.70;;;;;;;-0.48;100.00;102299.28;5156239;28;20056;-68
2021/03/24 03:47:10;;;;;;;135.05;39.35;;;;;;;-0.46;100.00;102305.34;5155632;28;20027;-68
2021/03/24 03:49:42;;;;;;;130.40;39.47;;;;;;;-0.44;100.00;102300.88;5157543;28;20022;-68
2021/03/24 03:52:25;;;;;;;138.23;43.40;;;;;;;-0.39;100.00;102300.72;5155256;28;20522;-70
2021/03/24 03:55:17;;;;;;;135.98;41.33;;;;;;;-0.40;100.00;102301.59;5156131;28;20109;-68
2021/03/24 03:57:55;;;;;;;144.02;42.58;;;;;;;-0.42;100.00;102295.53;5170368;28;20053;-68
2021/03/24 04:00:30;;;;;;;134.77;39.70;;;;;;;-0.46;100.00;102294.78;5151618;28;20026;-68
2021/03/24 04:03:07;;;;;;;140.55;40.92;;;;;;;-0.51;100.00;102299.38;5151151;28;20037;-69
2021/03/24 04:05:55;;;;;;;123.90;36.05;;;;;;;-0.53;100.00;102288.06;5158099;28;20487;-69
2021/03/24 04:08:32;;;;;;;144.38;41.10;;;;;;;-0.55;100.00;102289.91;5155091;28;20028;-69
2021/03/24 04:11:07;;;;;;;139.35;41.22;;;;;;;-0.59;100.00;102298.84;5156218;28;20091;-69
2021/03/24 04:13:42;;;;;;;127.15;39.33;;;;;;;-0.62;100.00;102298.94;5146755;28;20030;-69
2021/03/24 04:16:13;;;;;;;127.03;36.67;;;;;;;-0.67;100.00;102293.00;5147416;28;20449;-68
2021/03/24 04:18:53;;;;;;;140.35;38.15;;;;;;;-0.69;100.00;102300.13;5155122;28;20018;-69
2021/03/24 04:21:27;;;;;;;140.25;38.83;;;;;;;-0.70;100.00;102299.25;5146471;28;20030;-68
2021/03/24 04:24:03;;;;;;;122.40;36.25;;;;;;;-0.68;100.00;102291.28;5149616;28;20100;-69
2021/03/24 04:26:39;;;;;;;107.07;32.00;;;;;;;-0.68;100.00;102296.56;5185376;28;20027;-69
2021/03/24 04:29:18;;;;;;;128.27;38.28;;;;;;;-0.71;100.00;102294.03;5153568;28;20390;-69
2021/03/24 04:31:53;;;;;;;138.98;40.50;;;;;;;-0.73;100.00;102295.88;5150357;28;20406;-69
2021/03/24 04:34:25;;;;;;;136.85;39.80;;;;;;;-0.73;100.00;102296.72;5157224;28;20136;-68
2021/03/24 04:37:02;;;;;;;125.00;37.83;;;;;;;-0.73;100.00;102290.59;5153046;28;20033;-69
2021/03/24 04:39:42;;;;;;;129.10;39.15;;;;;;;-0.67;100.00;102300.91;5149355;28;20050;-68
2021/03/24 04:42:19;;;;;;;117.13;37.53;;;;;;;-0.62;100.00;102302.44;5156667;28;20034;-70
2021/03/24 04:44:55;;;;;;;135.25;40.38;;;;;;;-0.55;100.00;102295.19;5145687;28;20034;-70
2021/03/24 04:47:32;;;;;;;136.30;40.38;;;;;;;-0.50;100.00;102297.59;5155932;28;20541;-70
2021/03/24 04:50:16;;;;;;;142.75;40.92;;;;;;;-0.50;100.00;102301.13;5154594;28;20034;-70
2021/03/24 04:52:48;;;;;;;144.95;41.80;;;;;;;-0.48;100.00;102291.38;5157654;28;20544;-68
2021/03/24 04:55:24;;;;;;;145.00;42.20;;;;;;;-0.48;100.00;102296.66;5158337;28;20033;-68
2021/03/24 04:57:58;;;;;;;154.40;41.42;;;;;;;-0.51;100.00;102296.75;5154591;28;20037;-68
2021/03/24 05:00:40;;;;;;;133.45;38.85;;;;;;;-0.51;100.00;102294.13;5143642;28;20019;-69
2021/03/24 05:03:32;;;;;;;162.40;42.47;;;;;;;-0.48;100.00;102298.44;5149422;28;20041;-69
2021/03/24 05:06:08;;;;;;;162.07;45.20;;;;;;;-0.50;100.00;102294.97;5150782;28;20091;-69
2021/03/24 05:08:42;;;;;;;167.48;45.78;;;;;;;-0.52;100.00;102295.03;5144039;28;20053;-69
2021/03/24 05:11:21;;;;;;;169.18;48.00;;;;;;;-0.52;100.00;102298.53;5160510;28;20034;-69
2021/03/24 05:14:06;;;;;;;154.43;42.83;;;;;;;-0.51;100.00;102304.66;5150281;28;20171;-69
2021/03/24 05:16:39;;;;;;;;;;;;;;;-0.49;100.00;102302.00;5151631;28;20030;-69
2021/03/24 05:19:22;;;;;;;148.27;43.08;;;;;;;-0.48;100.00;102301.91;5149467;28;19913;-69
2021/03/24 05:22:08;;;;;;;161.80;46.10;;;;;;;-0.45;100.00;102299.19;5153093;28;20087;-68
2021/03/24 05:24:40;;;;;;;;;;;;;;;-0.43;100.00;102302.59;5155573;28;20053;-69
2021/03/24 05:27:18;;;;;;;177.50;43.88;;;;;;;-0.42;100.00;102285.84;5191657;28;19960;-68
2021/03/24 05:29:53;;;;;;;151.85;44.60;;;;;;;-0.39;100.00;102296.28;5151774;28;20090;-69
2021/03/24 05:32:31;;;;;;;160.88;40.50;;;;;;;-0.35;100.00;102292.63;5151977;28;20122;-69
2021/03/24 05:35:21;;;;;;;162.07;41.78;;;;;;;-0.33;100.00;102303.94;5153735;28;20046;-68
2021/03/24 05:37:52;;;;;;;150.45;42.38;;;;;;;-0.29;100.00;102304.69;5151490;28;20042;-68
2021/03/24 05:40:42;;;;;;;150.90;43.80;;;;;;;-0.21;100.00;102309.66;5160311;28;20479;-68
2021/03/24 05:43:32;;;;;;;153.82;42.03;;;;;;;-0.18;100.00;102306.91;5154625;28;20022;-69
2021/03/24 05:46:21;;;;;;;163.30;42.55;;;;;;;-0.13;100.00;102302.31;5158353;28;20167;-69
2021/03/24 05:48:55;;;;;;;158.23;44.20;;;;;;;-0.09;100.00;102303.91;5149867;28;20038;-69
2021/03/24 05:51:33;;;;;;;173.73;47.50;;;;;;;0.00;100.00;102306.16;5154142;28;20030;-69
2021/03/24 05:54:32;;;;;;;157.30;40.22;;;;;;;0.13;100.00;102298.59;5160426;28;20049;-68
2021/03/24 05:57:16;;;;;;;131.25;38.55;;;;;;;0.24;100.00;102301.63;5155135;28;20087;-68
2021/03/24 05:59:56;;;;;;;125.80;40.25;;;;;;;0.31;100.00;102296.97;5159050;28;20113;-68
2021/03/24 06:02:46;;;;;;;114.78;35.63;;;;;;;0.37;100.00;102297.56;5158732;28;20026;-68
2021/03/24 06:05:40;;;;;;;116.80;33.85;;;;;;;0.43;100.00;102305.22;5159590;28;20398;-69
2021/03/24 06:08:59;;;;;;;128.15;39.85;;;;;;;0.47;100.00;102298.03;5158303;28;20433;-68
2021/03/24 06:11:47;;;;;;;137.32;39.83;;;;;;;0.57;100.00;102302.00;5152966;28;20056;-68
2021/03/24 06:14:40;;;;;;;133.88;40.58;;;;;;;0.64;100.00;102302.56;5159347;28;20037;-69
2021/03/24 06:17:29;;;;;;;129.70;39.83;;;;;;;0.67;100.00;102300.66;5159006;28;20034;-68
2021/03/24 06:20:22;;;;;;;124.68;37.67;;;;;;;0.69;100.00;102304.09;5158953;28;20041;-69
2021/03/24 06:23:43;;;;;;;101.78;32.80;;;;;;;0.76;100.00;102299.41;5159267;28;20509;-69
2021/03/24 06:26:36;;;;;;;119.97;37.70;;;;;;;0.87;100.00;102306.88;5158672;28;20034;-69
2021/03/24 06:29:16;;;;;;;148.20;41.40;;;;;;;1.03;100.00;102299.97;5150353;28;20030;-69
2021/03/24 06:32:14;;;;;;;141.00;42.25;;;;;;;1.21;100.00;102304.41;5159497;28;20026;-68
2021/03/24 06:35:10;;;;;;;128.32;40.10;;;;;;;1.41;100.00;102302.63;5156155;28;20022;-68
2021/03/24 06:38:02;;;;;;;130.15;41.90;;;;;;;1.55;100.00;102295.75;5155301;28;20023;-68
2021/03/24 06:40:47;;;;;;;141.63;42.95;;;;;;;1.75;100.00;102301.88;5159086;28;20041;-69
2021/03/24 06:43:31;;;;;;;143.63;45.83;;;;;;;1.89;100.00;102304.72;5153901;28;20037;-69
2021/03/24 06:46:22;;;;;;;134.25;41.47;;;;;;;2.02;100.00;102305.84;5156883;28;20281;-69
2021/03/24 06:49:16;;;;;;;135.65;41.53;;;;;;;2.21;100.00;102307.56;5157111;28;20037;-69
2021/03/24 06:51:54;;;;;;;124.80;40.97;;;;;;;2.35;100.00;102310.38;5148660;28;20026;-69
2021/03/24 06:55:10;;;;;;;133.27;43.03;;;;;;;2.54;100.00;102311.16;5154283;28;20435;-69
2021/03/24 06:57:55;;;;;;;;;;;;;;;2.77;100.00;102314.41;5154794;28;20023;-68
2021/03/24 07:00:48;;;;;;;133.70;42.85;;;;;;;3.00;100.00;102318.50;5154518;28;19910;-69
2021/03/24 07:03:42;;;;;;;129.65;42.15;;;;;;;3.26;100.00;102314.44;5148207;28;20022;-69
2021/03/24 07:06:38;;;;;;;126.65;42.05;;;;;;;3.52;100.00;102305.06;5159253;28;20187;-69
2021/03/24 07:09:16;;;;;;;;;;;;;;;3.74;100.00;102310.88;5151412;28;20025;-69
2021/03/24 07:11:53;;;;;;;131.40;41.83;;;;;;;3.93;100.00;102315.16;5148857;28;19916;-69
2021/03/24 07:14:31;;;;;;;121.13;43.10;;;;;;;4.14;100.00;102306.81;5151996;28;20063;-69
2021/03/24 07:17:30;;;;;;;123.35;41.97;;;;;;;4.37;100.00;102308.13;5153345;28;20563;-69
2021/03/24 07:20:22;;;;;;;129.48;44.47;;;;;;;4.63;100.00;102306.56;5146279;28;20117;-71
2021/03/24 07:23:09;;;;;;;119.20;41.25;;;;;;;4.88;100.00;102302.44;5148096;28;20269;-69
2021/03/24 07:25:50;;;;;;;112.90;40.97;;;;;;;5.13;100.00;102305.28;5152422;28;20035;-69
2021/03/24 07:28:37;;;;;;;111.07;37.80;;;;;;;5.40;100.00;102302.69;5160644;28;20045;-69
2021/03/24 07:31:29;;;;;;;116.35;42.97;;;;;;;5.60;100.00;102298.75;5154391;28;20033;-68
2021/03/24 07:34:10;;;;;;;110.57;40.70;;;;;;;5.82;100.00;102300.00;5154436;28;20030;-69
2021/03/24 07:36:59;;;;;;;104.78;40.28;;;;;;;6.10;100.00;102288.44;5150506;28;20031;-69
2021/03/24 07:39:42;;;;;;;110.32;40.08;;;;;;;6.30;100.00;102295.94;5156255;28;20030;-69
2021/03/24 07:42:31;;;;;;;102.10;37.22;;;;;;;6.53;100.00;102305.06;5147014;28;20038;-69
2021/03/24 07:45:25;;;;;;;97.88;37.47;;;;;;;6.72;100.00;102300.16;5151917;28;20038;-69
2021/03/24 07:48:07;;;;;;;95.22;38.03;;;;;;;6.96;100.00;102310.09;5149387;28;20466;-69
2021/03/24 07:50:50;;;;;;;100.47;36.47;;;;;;;7.14;100.00;102305.28;5147890;28;20030;-69
2021/03/24 07:53:45;;;;;;;93.75;34.70;;;;;;;7.31;100.00;102309.44;5149100;28;20030;-70
2021/03/24 07:56:28;;;;;;;91.93;34.72;;;;;;;7.51;100.00;102300.84;5141465;28;20035;-70
2021/03/24 07:59:14;;;;;;;101.10;36.38;;;;;;;7.71;100.00;102307.41;5155643;28;20023;-70
2021/03/24 08:02:03;;;;;;;92.80;34.50;;;;;;;7.92;100.00;102310.31;5157745;28;20022;-70
2021/03/24 08:04:38;;;;;;;99.03;34.95;;;;;;;8.13;100.00;102306.03;5143621;28;20109;-70
2021/03/24 08:07:25;;;;;;;83.78;32.28;;;;;;;8.24;100.00;102295.41;5145601;28;20414;-69
2021/03/24 08:10:08;;;;;;;93.45;35.25;;;;;;;8.39;100.00;102301.44;5152355;28;20033;-70
2021/03/24 08:12:38;;;;;;;83.47;33.75;;;;;;;8.46;100.00;102297.31;5144286;28;20117;-70
2021/03/24 08:15:14;;;;;;;84.05;33.10;;;;;;;8.62;100.00;102293.47;5146082;28;20927;-69
2021/03/24 08:17:59;;;;;;;83.75;32.38;;;;;;;8.79;100.00;102296.56;5151292;28;20030;-69
2021/03/24 08:20:47;;;;;;;91.15;32.45;;;;;;;8.95;100.00;102295.38;5150064;28;20018;-70
2021/03/24 08:23:24;;;;;;;81.30;32.00;;;;;;;9.07;100.00;102302.41;5157940;28;20083;-69
2021/03/24 08:26:18;;;;;;;90.70;32.70;;;;;;;9.20;100.00;102296.97;5157715;28;20063;-69
2021/03/24 08:28:58;;;;;;;86.05;34.15;;;;;;;9.33;100.00;102303.00;5163727;28;20399;-69
2021/03/24 08:31:29;;;;;;;79.90;31.20;;;;;;;9.38;100.00;102305.31;5156372;28;20393;-69
2021/03/24 08:34:12;;;;;;;83.75;31.30;;;;;;;9.51;100.00;102300.69;5148607;28;20035;-69
2021/03/24 08:36:53;;;;;;;81.68;32.03;;;;;;;9.68;100.00;102299.31;5142064;28;20437;-70
2021/03/24 08:39:50;;;;;;;80.47;31.05;;;;;;;9.80;100.00;102292.97;5150143;28;20038;-69
2021/03/24 08:42:50;;;;;;;81.97;31.60;;;;;;;9.87;100.00;102294.16;5143306;28;20059;-70
2021/03/24 08:45:34;;;;;;;84.97;30.02;;;;;;;10.08;100.00;102295.06;5150591;28;20057;-69
2021/03/24 08:48:12;;;;;;;83.90;31.13;;;;;;;10.22;100.00;102293.06;5141184;28;20031;-70
2021/03/24 08:50:53;;;;;;;91.03;32.47;;;;;;;10.31;100.00;102295.00;5144365;28;20107;-70
2021/03/24 08:53:43;;;;;;;77.97;30.55;;;;;;;10.46;100.00;102291.03;5157758;28;20505;-70
2021/03/24 08:56:13;;;;;;;80.03;31.65;;;;;;;10.65;100.00;102287.63;5140795;28;20026;-69
2021/03/24 08:59:00;;;;;;;81.85;30.83;;;;;;;10.87;100.00;102295.50;5143608;28;20513;-70
2021/03/24 09:01:54;;;;;;;75.32;31.23;;;;;;;11.07;100.00;102292.94;5150763;28;20054;-71
2021/03/24 09:04:43;;;;;;;80.55;29.35;;;;;;;11.20;100.00;102300.78;5154852;28;20018;-70
2021/03/24 09:07:37;;;;;;;70.03;29.00;;;;;;;11.32;100.00;102292.47;5156749;28;20070;-70
2021/03/24 09:10:07;;;;;;;74.82;30.35;;;;;;;11.46;100.00;102290.41;5151625;28;20148;-70
2021/03/24 09:12:50;;;;;;;75.85;29.70;;;;;;;11.59;100.00;102278.41;5155275;28;20445;-70
2021/03/24 09:15:29;;;;;;;77.07;28.67;;;;;;;11.73;100.00;102289.75;5148401;28;20033;-70
2021/03/24 09:18:21;;;;;;;81.95;28.70;;;;;;;11.88;100.00;102283.84;5156092;28;20467;-70
2021/03/24 09:21:07;;;;;;;76.10;28.33;;;;;;;12.06;100.00;102288.56;5151215;28;20109;-70
2021/03/24 09:24:09;;;;;;;78.80;29.10;;;;;;;12.11;100.00;102281.75;5154797;28;20391;-70
2021/03/24 09:26:53;;;;;;;68.35;27.98;;;;;;;12.26;100.00;102282.19;5147976;28;20026;-70
2021/03/24 09:29:32;;;;;;;79.30;31.40;;;;;;;12.33;100.00;102279.75;5171769;28;20042;-70
2021/03/24 09:32:33;;;;;;;77.47;29.13;;;;;;;12.61;100.00;102273.50;5145186;28;20443;-71
2021/03/24 09:35:23;;;;;;;63.53;27.17;;;;;;;12.57;100.00;102284.69;5157679;28;20084;-71
2021/03/24 09:38:02;;;;;;;65.72;25.55;;;;;;;12.77;100.00;102277.44;5157071;28;20139;-71
2021/03/24 09:40:43;;;;;;;70.63;27.42;;;;;;;12.77;100.00;102272.88;5155995;28;20048;-71
2021/03/24 09:43:25;;;;;;;67.05;25.98;;;;;;;12.83;100.00;102279.53;5151337;28;20026;-71
2021/03/24 09:46:10;;;;;;;67.07;26.13;;;;;;;12.99;100.00;102281.59;5151796;28;20499;-70
2021/03/24 09:48:46;;;;;;;62.28;23.80;;;;;;;13.09;100.00;102275.19;5156111;28;20534;-70
2021/03/24 09:51:35;;;;;;;62.70;23.88;;;;;;;13.18;91.35;102277.00;5147289;28;20022;-70
2021/03/24 09:54:26;;;;;;;63.67;23.20;;;;;;;13.41;100.00;102276.66;5152293;28;20030;-70
2021/03/24 09:57:06;;;;;;;54.53;22.35;;;;;;;13.43;96.14;102270.09;5150446;28;20502;-71
2021/03/24 09:59:51;;;;;;;59.90;22.33;;;;;;;13.61;99.83;102266.59;5155699;28;20025;-71
2021/03/24 10:02:27;;;;;;;51.65;22.33;;;;;;;13.73;95.28;102263.53;5158287;28;20034;-70
2021/03/24 10:05:05;;;;;;;52.75;21.17;;;;;;;13.91;90.42;102268.09;5144458;28;20023;-73
2021/03/24 10:07:41;;;;;;;54.58;20.23;;;;;;;14.03;79.85;102266.84;5145789;28;20027;-71
2021/03/24 10:10:22;;;;;;;47.42;19.70;;;;;;;14.04;87.17;102263.16;5146856;28;20113;-72
2021/03/24 10:12:57;;;;;;;48.70;19.60;;;;;;;14.22;73.02;102266.69;5143878;28;20083;-71
2021/03/24 10:15:38;;;;;;;56.05;23.73;;;;;;;14.14;75.14;102263.91;5150816;28;20559;-72
2021/03/24 10:18:20;;;;;;;45.40;17.55;;;;;;;14.00;70.10;102257.19;5159058;28;20026;-71
2021/03/24 10:20:50;;;;;;;46.67;17.30;;;;;;;13.98;71.96;102263.78;5150898;28;20105;-71
2021/03/24 10:23:24;;;;;;;41.58;18.45;;;;;;;14.22;68.99;102257.75;5150541;28;20122;-71
2021/03/24 10:26:08;;;;;;;42.70;18.00;;;;;;;14.26;68.78;102264.53;5144942;28;20031;-70
2021/03/24 10:28:52;;;;;;;45.35;17.27;;;;;;;14.14;63.44;102257.66;5156898;28;20092;-73
2021/03/24 10:31:35;;;;;;;48.30;17.83;;;;;;;14.06;74.28;102260.31;5183455;28;20030;-74
2021/03/24 10:34:16;;;;;;;42.25;16.48;;;;;;;14.13;68.64;102262.22;5155754;28;20459;-73
2021/03/24 10:36:52;;;;;;;40.10;16.05;;;;;;;14.07;64.52;102265.53;5153028;28;20073;-71
2021/03/24 10:39:32;;;;;;;36.50;16.38;;;;;;;14.13;71.60;102255.97;5158479;28;20068;-71
2021/03/24 10:42:24;;;;;;;45.22;16.67;;;;;;;14.31;73.33;102256.81;5156442;28;20041;-71
2021/03/24 10:45:20;;;;;;;41.20;17.52;;;;;;;14.33;69.27;102259.34;5154962;28;20064;-74
2021/03/24 10:47:58;;;;;;;41.28;17.08;;;;;;;14.36;63.19;102256.34;5157062;28;20063;-71
2021/03/24 10:50:43;;;;;;;43.72;17.45;;;;;;;14.61;62.46;102260.06;5156948;28;20018;-73
2021/03/24 10:53:25;;;;;;;36.78;15.98;;;;;;;14.67;74.87;102257.63;5154268;28;20042;-75
2021/03/24 10:56:01;;;;;;;41.67;17.52;;;;;;;14.87;78.87;102255.53;5156160;28;20565;-71
2021/03/24 10:58:55;;;;;;;37.58;15.48;;;;;;;14.75;62.28;102251.41;5156555;28;20398;-71
2021/03/24 11:01:38;;;;;;;36.33;16.33;;;;;;;14.90;64.75;102246.25;5158700;28;20575;-71
2021/03/24 11:04:09;;;;;;;35.63;15.15;;;;;;;14.93;57.34;102245.94;5159345;28;20041;-71
2021/03/24 11:06:52;;;;;;;42.50;16.55;;;;;;;15.01;59.74;102246.00;5158233;28;20529;-71
2021/03/24 11:09:35;;;;;;;37.95;16.75;;;;;;;15.05;66.70;102244.63;5157710;28;20034;-71
2021/03/24 11:12:10;;;;;;;40.47;16.85;;;;;;;15.36;71.60;102249.50;5157677;28;20022;-73
2021/03/24 11:14:55;;;;;;;39.90;18.13;;;;;;;15.17;59.50;102240.66;5158780;28;20105;-71
2021/03/24 11:17:38;;;;;;;37.47;17.10;;;;;;;15.20;63.30;102234.06;5158192;28;20053;-71
2021/03/24 11:20:13;;;;;;;44.25;17.50;;;;;;;15.27;57.37;102227.84;5158593;28;20022;-71
2021/03/24 11:22:57;;;;;;;50.65;17.35;;;;;;;15.23;55.69;102236.44;5157924;28;20117;-71
2021/03/24 11:25:36;;;;;;;40.38;16.88;;;;;;;15.13;57.74;102233.88;5158610;28;20471;-73
2021/03/24 11:28:17;;;;;;;39.90;18.17;;;;;;;15.21;58.89;102227.63;5158168;28;20022;-73
2021/03/24 11:30:58;;;;;;;40.80;17.45;;;;;;;15.40;61.03;102232.78;5167354;28;20457;-71
2021/03/24 11:33:48;;;;;;;43.47;17.48;;;;;;;15.48;62.19;102223.84;5144214;28;20026;-71
2021/03/24 11:36:31;;;;;;;45.35;18.92;;;;;;;15.72;58.08;102223.09;5152601;28;20071;-74
2021/03/24 11:39:26;;;;;;;36.08;17.60;;;;;;;15.51;56.20;102218.09;5158560;28;20018;-73
2021/03/24 11:42:09;;;;;;;40.90;17.13;;;;;;;15.49;53.06;102212.03;5148325;28;20026;-71
2021/03/24 11:44:40;;;;;;;36.00;15.65;;;;;;;15.46;56.47;102221.31;5151887;28;20049;-76
2021/03/24 11:47:38;;;;;;;46.13;18.02;;;;;;;15.72;56.91;102225.81;5148276;28;20030;-73
2021/03/24 11:50:17;;;;;;;41.97;18.00;;;;;;;15.63;53.91;102218.66;5142969;28;20034;-71
2021/03/24 11:53:03;;;;;;;41.92;17.85;;;;;;;15.70;53.43;102214.28;5142304;28;20034;-71
2021/03/24 11:55:54;;;;;;;37.30;16.83;;;;;;;15.71;54.08;102213.25;5141203;28;20046;-74
2021/03/24 11:58:29;;;;;;;38.90;16.90;;;;;;;15.58;51.17;102205.63;5145679;28;20034;-72
2021/03/24 12:01:14;;;;;;;41.90;17.30;;;;;;;15.67;53.89;102207.38;5147045;28;20027;-75